sensor_id;sensor_type;location;lat;lon;timestamp;pressure;altitude;pressure_sealevel;temperature;humidity
84310;BME280;74488;49.036;11.472;2024-01-30T00:00:07;98784.31;;;-1.13;89.29
84310;BME280;74488;49.036;11.472;2024-01-30T00:01:09;98796.63;;;-1.02;88.93
84310;BME280;74488;49.036;11.472;2024-01-30T00:02:11;98799.22;;;-1.00;89.40
84310;BME280;74488;49.036;11.472;2024-01-30T00:03:12;98802.72;;;-1.03;88.97
84310;BME280;74488;49.036;11.472;2024-01-30T00:04:14;98790.50;;;-1.02;89.01
84310;BME280;74488;49.036;11.472;2024-01-30T00:05:15;98793.13;;;-1.02;89.28
84310;BME280;74488;49.036;11.472;2024-01-30T00:06:19;98796.59;;;-1.03;88.77
84310;BME280;74488;49.036;11.472;2024-01-30T00:07:25;98795.72;;;-1.05;88.49
84310;BME280;74488;49.036;11.472;2024-01-30T00:08:26;98795.66;;;-1.10;88.56
84310;BME280;74488;49.036;11.472;2024-01-30T00:09:28;98793.88;;;-1.17;88.98
84310;BME280;74488;49.036;11.472;2024-01-30T00:10:30;98800.84;;;-1.21;88.43
84310;BME280;74488;49.036;11.472;2024-01-30T00:11:32;98798.19;;;-1.25;88.66
84310;BME280;74488;49.036;11.472;2024-01-30T00:12:33;98799.94;;;-1.27;89.39
84310;BME280;74488;49.036;11.472;2024-01-30T00:13:35;98799.91;;;-1.33;88.77
84310;BME280;74488;49.036;11.472;2024-01-30T00:14:36;98804.25;;;-1.34;89.19
84310;BME280;74488;49.036;11.472;2024-01-30T00:15:38;98800.72;;;-1.39;88.90
84310;BME280;74488;49.036;11.472;2024-01-30T00:16:39;98803.38;;;-1.36;88.63
84310;BME280;74488;49.036;11.472;2024-01-30T00:17:41;98799.88;;;-1.35;89.13
84310;BME280;74488;49.036;11.472;2024-01-30T00:18:42;98804.31;;;-1.28;89.19
84310;BME280;74488;49.036;11.472;2024-01-30T00:19:44;98804.28;;;-1.31;89.29
84310;BME280;74488;49.036;11.472;2024-01-30T00:20:45;98806.00;;;-1.33;88.96
84310;BME280;74488;49.036;11.472;2024-01-30T00:21:47;98794.59;;;-1.42;90.02
84310;BME280;74488;49.036;11.472;2024-01-30T00:22:48;98812.06;;;-1.40;89.76
84310;BME280;74488;49.036;11.472;2024-01-30T00:23:50;98812.03;;;-1.43;89.43
84310;BME280;74488;49.036;11.472;2024-01-30T00:24:52;98812.00;;;-1.47;89.93
84310;BME280;74488;49.036;11.472;2024-01-30T00:25:53;98811.16;;;-1.43;89.79
84310;BME280;74488;49.036;11.472;2024-01-30T00:26:55;98814.66;;;-1.41;89.88
84310;BME280;74488;49.036;11.472;2024-01-30T00:27:56;98816.44;;;-1.39;89.72
84310;BME280;74488;49.036;11.472;2024-01-30T00:28:58;98809.41;;;-1.43;90.22
84310;BME280;74488;49.036;11.472;2024-01-30T00:30:00;98818.13;;;-1.41;89.64
84310;BME280;74488;49.036;11.472;2024-01-30T00:31:01;98823.34;;;-1.44;89.04
84310;BME280;74488;49.036;11.472;2024-01-30T00:32:03;98821.59;;;-1.46;89.10
84310;BME280;74488;49.036;11.472;2024-01-30T00:33:04;98827.69;;;-1.46;89.63
84310;BME280;74488;49.036;11.472;2024-01-30T00:34:06;98823.34;;;-1.47;89.45
84310;BME280;74488;49.036;11.472;2024-01-30T00:35:08;98823.31;;;-1.50;89.56
84310;BME280;74488;49.036;11.472;2024-01-30T00:36:11;98823.28;;;-1.51;89.43
84310;BME280;74488;49.036;11.472;2024-01-30T00:37:13;98827.69;;;-1.50;89.40
84310;BME280;74488;49.036;11.472;2024-01-30T00:38:14;98829.38;;;-1.55;89.25
84310;BME280;74488;49.036;11.472;2024-01-30T00:39:16;98822.38;;;-1.55;89.75
84310;BME280;74488;49.036;11.472;2024-01-30T00:40:17;98827.66;;;-1.53;89.58
84310;BME280;74488;49.036;11.472;2024-01-30T00:41:19;98829.38;;;-1.55;89.69
84310;BME280;74488;49.036;11.472;2024-01-30T00:42:20;98810.94;;;-1.69;89.50
84310;BME280;74488;49.036;11.472;2024-01-30T00:43:22;98828.38;;;-1.68;89.77
84310;BME280;74488;49.036;11.472;2024-01-30T00:44:26;98830.13;;;-1.68;89.56
84310;BME280;74488;49.036;11.472;2024-01-30T00:45:27;98825.78;;;-1.69;89.63
84310;BME280;74488;49.036;11.472;2024-01-30T00:46:29;98835.34;;;-1.70;89.81
84310;BME280;74488;49.036;11.472;2024-01-30T00:47:30;98768.72;;;-2.08;90.29
84310;BME280;74488;49.036;11.472;2024-01-30T00:48:34;98827.44;;;-1.75;90.51
84310;BME280;74488;49.036;11.472;2024-01-30T00:49:36;98829.25;;;-1.69;89.83
84310;BME280;74488;49.036;11.472;2024-01-30T00:50:38;98832.72;;;-1.73;90.05
84310;BME280;74488;49.036;11.472;2024-01-30T00:51:39;98834.44;;;-1.73;90.49
84310;BME280;74488;49.036;11.472;2024-01-30T00:52:41;98835.31;;;-1.73;89.72
84310;BME280;74488;49.036;11.472;2024-01-30T00:53:43;98832.72;;;-1.73;90.06
84310;BME280;74488;49.036;11.472;2024-01-30T00:54:44;98841.44;;;-1.71;90.09
84310;BME280;74488;49.036;11.472;2024-01-30T00:55:46;98833.59;;;-1.71;89.95
84310;BME280;74488;49.036;11.472;2024-01-30T00:56:47;98834.41;;;-1.78;89.48
84310;BME280;74488;49.036;11.472;2024-01-30T00:57:49;98829.13;;;-1.83;89.51
84310;BME280;74488;49.036;11.472;2024-01-30T00:58:50;98815.09;;;-1.92;90.23
84310;BME280;74488;49.036;11.472;2024-01-30T00:59:52;98843.97;;;-1.82;90.56
84310;BME280;74488;49.036;11.472;2024-01-30T01:00:53;98848.31;;;-1.82;91.05
84310;BME280;74488;49.036;11.472;2024-01-30T01:01:55;98841.34;;;-1.82;90.72
84310;BME280;74488;49.036;11.472;2024-01-30T01:02:56;98841.34;;;-1.80;90.64
84310;BME280;74488;49.036;11.472;2024-01-30T01:03:58;98841.34;;;-1.80;90.56
84310;BME280;74488;49.036;11.472;2024-01-30T01:05:00;98835.22;;;-1.82;90.10
84310;BME280;74488;49.036;11.472;2024-01-30T01:06:01;98838.72;;;-1.82;90.63
84310;BME280;74488;49.036;11.472;2024-01-30T01:07:03;98829.09;;;-1.86;90.11
84310;BME280;74488;49.036;11.472;2024-01-30T01:08:04;98838.72;;;-1.82;90.03
84310;BME280;74488;49.036;11.472;2024-01-30T01:09:06;98836.09;;;-1.85;90.17
84310;BME280;74488;49.036;11.472;2024-01-30T01:10:08;98836.09;;;-1.83;89.87
84310;BME280;74488;49.036;11.472;2024-01-30T01:11:09;98832.63;;;-1.84;90.35
84310;BME280;74488;49.036;11.472;2024-01-30T01:12:11;98831.72;;;-1.84;89.51
84310;BME280;74488;49.036;11.472;2024-01-30T01:13:12;98838.66;;;-1.86;89.17
84310;BME280;74488;49.036;11.472;2024-01-30T01:14:14;98837.81;;;-1.87;89.27
84310;BME280;74488;49.036;11.472;2024-01-30T01:15:16;98837.81;;;-1.87;89.39
84310;BME280;74488;49.036;11.472;2024-01-30T01:16:17;98801.81;;;-2.09;89.64
84310;BME280;74488;49.036;11.472;2024-01-30T01:17:19;98843.91;;;-1.86;89.75
84310;BME280;74488;49.036;11.472;2024-01-30T01:18:20;98836.06;;;-1.86;89.56
84310;BME280;74488;49.036;11.472;2024-01-30T01:19:22;98835.16;;;-1.88;89.41
84310;BME280;74488;49.036;11.472;2024-01-30T01:20:23;98843.06;;;-1.82;89.40
84310;BME280;74488;49.036;11.472;2024-01-30T01:21:25;98849.19;;;-1.80;89.16
84310;BME280;74488;49.036;11.472;2024-01-30T01:22:27;98843.06;;;-1.81;89.05
84310;BME280;74488;49.036;11.472;2024-01-30T01:23:28;98844.00;;;-1.79;89.02
84310;BME280;74488;49.036;11.472;2024-01-30T01:24:31;98837.03;;;-1.77;89.64
84310;BME280;74488;49.036;11.472;2024-01-30T01:25:33;98834.44;;;-1.75;89.45
84310;BME280;74488;49.036;11.472;2024-01-30T01:26:34;98834.44;;;-1.73;89.56
84310;BME280;74488;49.036;11.472;2024-01-30T01:27:36;98837.91;;;-1.76;89.02
84310;BME280;74488;49.036;11.472;2024-01-30T01:28:42;98828.25;;;-1.80;88.89
84310;BME280;74488;49.036;11.472;2024-01-30T01:29:43;98811.63;;;-1.90;89.05
84310;BME280;74488;49.036;11.472;2024-01-30T01:30:45;98830.00;;;-1.84;89.13
84310;BME280;74488;49.036;11.472;2024-01-30T01:31:46;98831.69;;;-1.86;88.69
84310;BME280;74488;49.036;11.472;2024-01-30T01:32:48;98827.31;;;-1.88;89.00
84310;BME280;74488;49.036;11.472;2024-01-30T01:33:56;98822.97;;;-1.88;88.63
84310;BME280;74488;49.036;11.472;2024-01-30T01:34:58;98828.19;;;-1.91;88.63
84310;BME280;74488;49.036;11.472;2024-01-30T01:36:00;98832.53;;;-1.93;89.40
84310;BME280;74488;49.036;11.472;2024-01-30T01:37:03;98823.75;;;-1.96;89.06
84310;BME280;74488;49.036;11.472;2024-01-30T01:38:05;98825.50;;;-1.97;89.19
84310;BME280;74488;49.036;11.472;2024-01-30T01:39:06;98823.72;;;-1.99;89.95
84310;BME280;74488;49.036;11.472;2024-01-30T01:40:08;98820.22;;;-2.01;89.79
84310;BME280;74488;49.036;11.472;2024-01-30T01:41:10;98828.06;;;-2.01;89.84
84310;BME280;74488;49.036;11.472;2024-01-30T01:42:12;98805.28;;;-2.13;89.81
84310;BME280;74488;49.036;11.472;2024-01-30T01:43:13;98814.06;;;-2.09;89.46
84310;BME280;74488;49.036;11.472;2024-01-30T01:44:15;98819.22;;;-2.14;90.39
84310;BME280;74488;49.036;11.472;2024-01-30T01:45:16;98817.50;;;-2.12;89.97
84310;BME280;74488;49.036;11.472;2024-01-30T01:46:18;98818.41;;;-2.10;89.78
84310;BME280;74488;49.036;11.472;2024-01-30T01:47:19;98814.91;;;-2.12;89.24
84310;BME280;74488;49.036;11.472;2024-01-30T01:48:21;98815.75;;;-2.11;89.34
84310;BME280;74488;49.036;11.472;2024-01-30T01:49:25;98821.84;;;-2.12;89.38
84310;BME280;74488;49.036;11.472;2024-01-30T01:50:28;98817.50;;;-2.10;89.83
84310;BME280;74488;49.036;11.472;2024-01-30T01:51:31;98820.25;;;-1.98;89.91
84310;BME280;74488;49.036;11.472;2024-01-30T01:52:33;98781.66;;;-2.22;89.90
84310;BME280;74488;49.036;11.472;2024-01-30T01:53:35;98816.69;;;-2.06;90.45
84310;BME280;74488;49.036;11.472;2024-01-30T01:54:37;98816.66;;;-2.09;90.63
84310;BME280;74488;49.036;11.472;2024-01-30T01:55:38;98816.63;;;-2.11;90.70
84310;BME280;74488;49.036;11.472;2024-01-30T01:56:40;98816.59;;;-2.14;90.68
84310;BME280;74488;49.036;11.472;2024-01-30T01:57:43;98806.94;;;-2.19;91.10
84310;BME280;74488;49.036;11.472;2024-01-30T01:58:46;98820.94;;;-2.17;90.70
84310;BME280;74488;49.036;11.472;2024-01-30T01:59:48;98811.34;;;-2.18;90.71
84310;BME280;74488;49.036;11.472;2024-01-30T02:00:50;98816.56;;;-2.18;90.41
84310;BME280;74488;49.036;11.472;2024-01-30T02:01:53;98816.53;;;-2.20;90.40
84310;BME280;74488;49.036;11.472;2024-01-30T02:02:55;98810.44;;;-2.20;90.22
84310;BME280;74488;49.036;11.472;2024-01-30T02:03:58;98742.94;;;-2.59;89.69
84310;BME280;74488;49.036;11.472;2024-01-30T02:05:00;98805.19;;;-2.23;89.86
84310;BME280;74488;49.036;11.472;2024-01-30T02:06:02;98809.53;;;-2.24;89.80
84310;BME280;74488;49.036;11.472;2024-01-30T02:07:04;98804.34;;;-2.19;89.76
84310;BME280;74488;49.036;11.472;2024-01-30T02:08:06;98803.50;;;-2.17;89.99
84310;BME280;74488;49.036;11.472;2024-01-30T02:09:08;98804.44;;;-2.09;89.41
84310;BME280;74488;49.036;11.472;2024-01-30T02:10:10;98798.44;;;-2.02;88.87
84310;BME280;74488;49.036;11.472;2024-01-30T02:11:12;98797.56;;;-2.01;88.63
84310;BME280;74488;49.036;11.472;2024-01-30T02:12:14;98805.44;;;-2.01;88.36
84310;BME280;74488;49.036;11.472;2024-01-30T02:13:15;98796.66;;;-2.04;88.51
84310;BME280;74488;49.036;11.472;2024-01-30T02:14:17;98804.47;;;-2.06;87.89
84310;BME280;74488;49.036;11.472;2024-01-30T02:15:18;98789.56;;;-2.14;88.30
84310;BME280;74488;49.036;11.472;2024-01-30T02:16:20;98802.66;;;-2.17;88.69
84310;BME280;74488;49.036;11.472;2024-01-30T02:17:21;98796.47;;;-2.22;88.93
84310;BME280;74488;49.036;11.472;2024-01-30T02:18:24;98798.19;;;-2.26;88.82
84310;BME280;74488;49.036;11.472;2024-01-30T02:19:26;98801.63;;;-2.31;89.21
84310;BME280;74488;49.036;11.472;2024-01-30T02:20:29;98791.97;;;-2.36;89.70
84310;BME280;74488;49.036;11.472;2024-01-30T02:21:32;98798.13;;;-2.30;89.60
84310;BME280;74488;49.036;11.472;2024-01-30T02:22:33;98767.41;;;-2.53;89.60
84310;BME280;74488;49.036;11.472;2024-01-30T02:23:36;98795.41;;;-2.40;89.68
84310;BME280;74488;49.036;11.472;2024-01-30T02:24:38;98804.22;;;-2.28;89.67
84310;BME280;74488;49.036;11.472;2024-01-30T02:25:40;98807.75;;;-2.26;90.30
84310;BME280;74488;49.036;11.472;2024-01-30T02:26:47;98798.13;;;-2.32;90.16
84310;BME280;74488;49.036;11.472;2024-01-30T02:27:49;98806.88;;;-2.25;90.09
84310;BME280;74488;49.036;11.472;2024-01-30T02:28:50;98809.50;;;-2.25;90.42
84310;BME280;74488;49.036;11.472;2024-01-30T02:29:52;98806.00;;;-2.29;90.46
84310;BME280;74488;49.036;11.472;2024-01-30T02:30:53;98807.69;;;-2.31;91.10
84310;BME280;74488;49.036;11.472;2024-01-30T02:31:55;98805.94;;;-2.35;90.22
84310;BME280;74488;49.036;11.472;2024-01-30T02:32:56;98809.34;;;-2.39;90.02
84310;BME280;74488;49.036;11.472;2024-01-30T02:33:58;98804.97;;;-2.42;90.82
84310;BME280;74488;49.036;11.472;2024-01-30T02:34:59;98810.19;;;-2.43;90.76
84310;BME280;74488;49.036;11.472;2024-01-30T02:36:01;98796.16;;;-2.50;91.36
84310;BME280;74488;49.036;11.472;2024-01-30T02:37:02;98802.34;;;-2.42;91.01
84310;BME280;74488;49.036;11.472;2024-01-30T02:38:04;98755.88;;;-2.70;90.75
84310;BME280;74488;49.036;11.472;2024-01-30T02:39:06;98797.97;;;-2.43;90.37
84310;BME280;74488;49.036;11.472;2024-01-30T02:40:07;98796.25;;;-2.42;90.33
84310;BME280;74488;49.036;11.472;2024-01-30T02:41:09;98799.75;;;-2.42;90.47
84310;BME280;74488;49.036;11.472;2024-01-30T02:42:10;98803.25;;;-2.41;90.45
84310;BME280;74488;49.036;11.472;2024-01-30T02:43:12;98792.75;;;-2.44;90.24
84310;BME280;74488;49.036;11.472;2024-01-30T02:44:13;98784.00;;;-2.49;90.21
84310;BME280;74488;49.036;11.472;2024-01-30T02:45:15;98796.22;;;-2.47;90.15
84310;BME280;74488;49.036;11.472;2024-01-30T02:46:16;98792.72;;;-2.49;90.04
84310;BME280;74488;49.036;11.472;2024-01-30T02:47:18;98795.31;;;-2.49;90.06
84310;BME280;74488;49.036;11.472;2024-01-30T02:48:19;98797.00;;;-2.52;89.93
84310;BME280;74488;49.036;11.472;2024-01-30T02:49:21;98789.09;;;-2.60;89.99
84310;BME280;74488;49.036;11.472;2024-01-30T02:50:23;98794.31;;;-2.60;90.17
84310;BME280;74488;49.036;11.472;2024-01-30T02:51:25;98797.75;;;-2.62;90.41
84310;BME280;74488;49.036;11.472;2024-01-30T02:52:26;98754.72;;;-2.95;90.04
84310;BME280;74488;49.036;11.472;2024-01-30T02:53:28;98795.91;;;-2.71;90.16
84310;BME280;74488;49.036;11.472;2024-01-30T02:54:29;98789.78;;;-2.74;90.53
84310;BME280;74488;49.036;11.472;2024-01-30T02:55:32;98771.34;;;-2.85;90.01
84310;BME280;74488;49.036;11.472;2024-01-30T02:56:33;98793.31;;;-2.69;89.86
84310;BME280;74488;49.036;11.472;2024-01-30T02:57:35;98802.03;;;-2.67;90.01
84310;BME280;74488;49.036;11.472;2024-01-30T02:58:36;98802.94;;;-2.68;90.23
84310;BME280;74488;49.036;11.472;2024-01-30T02:59:38;98798.59;;;-2.66;89.76
84310;BME280;74488;49.036;11.472;2024-01-30T03:00:39;98791.59;;;-2.67;89.48
84310;BME280;74488;49.036;11.472;2024-01-30T03:01:44;98796.88;;;-2.64;89.52
84310;BME280;74488;49.036;11.472;2024-01-30T03:02:46;98791.59;;;-2.69;89.43
84310;BME280;74488;49.036;11.472;2024-01-30T03:03:48;98794.25;;;-2.66;89.43
84310;BME280;74488;49.036;11.472;2024-01-30T03:04:49;98791.63;;;-2.64;89.63
84310;BME280;74488;49.036;11.472;2024-01-30T03:05:51;98784.59;;;-2.70;89.89
84310;BME280;74488;49.036;11.472;2024-01-30T03:06:53;98793.31;;;-2.69;89.83
84310;BME280;74488;49.036;11.472;2024-01-30T03:07:54;98792.44;;;-2.70;89.78
84310;BME280;74488;49.036;11.472;2024-01-30T03:08:56;98801.16;;;-2.68;89.83
84310;BME280;74488;49.036;11.472;2024-01-30T03:09:57;98792.44;;;-2.70;89.34
84310;BME280;74488;49.036;11.472;2024-01-30T03:10:59;98788.88;;;-2.78;89.52
84310;BME280;74488;49.036;11.472;2024-01-30T03:12:00;98794.97;;;-2.76;89.53
84310;BME280;74488;49.036;11.472;2024-01-30T03:13:02;98784.59;;;-2.71;89.63
84310;BME280;74488;49.036;11.472;2024-01-30T03:14:03;98775.09;;;-2.65;89.14
84310;BME280;74488;49.036;11.472;2024-01-30T03:15:06;98785.72;;;-2.50;89.21
84310;BME280;74488;49.036;11.472;2024-01-30T03:16:08;98781.41;;;-2.46;88.70
84310;BME280;74488;49.036;11.472;2024-01-30T03:17:09;98779.50;;;-2.59;88.66
84310;BME280;74488;49.036;11.472;2024-01-30T03:18:11;98787.28;;;-2.64;89.00
84310;BME280;74488;49.036;11.472;2024-01-30T03:19:12;98795.09;;;-2.67;88.85
84310;BME280;74488;49.036;11.472;2024-01-30T03:20:14;98774.13;;;-2.74;88.85
84310;BME280;74488;49.036;11.472;2024-01-30T03:21:16;98783.81;;;-2.66;89.43
84310;BME280;74488;49.036;11.472;2024-01-30T03:22:18;98783.03;;;-2.56;90.40
84310;BME280;74488;49.036;11.472;2024-01-30T03:23:19;98777.81;;;-2.57;90.77
84310;BME280;74488;49.036;11.472;2024-01-30T03:24:21;98782.19;;;-2.55;90.53
84310;BME280;74488;49.036;11.472;2024-01-30T03:25:22;98784.75;;;-2.58;90.67
84310;BME280;74488;49.036;11.472;2024-01-30T03:26:24;98782.16;;;-2.58;90.68
84310;BME280;74488;49.036;11.472;2024-01-30T03:27:26;98778.66;;;-2.57;91.21
84310;BME280;74488;49.036;11.472;2024-01-30T03:28:27;98776.03;;;-2.57;91.18
84310;BME280;74488;49.036;11.472;2024-01-30T03:29:28;98777.78;;;-2.59;90.70
84310;BME280;74488;49.036;11.472;2024-01-30T03:30:30;98774.28;;;-2.59;91.18
84310;BME280;74488;49.036;11.472;2024-01-30T03:31:32;98757.59;;;-2.72;90.87
84310;BME280;74488;49.036;11.472;2024-01-30T03:32:33;98783.88;;;-2.58;91.42
84310;BME280;74488;49.036;11.472;2024-01-30T03:33:36;98770.78;;;-2.61;91.35
84310;BME280;74488;49.036;11.472;2024-01-30T03:34:39;98777.84;;;-2.51;91.50
84310;BME280;74488;49.036;11.472;2024-01-30T03:35:41;98766.47;;;-2.58;91.10
84310;BME280;74488;49.036;11.472;2024-01-30T03:36:42;98770.81;;;-2.57;91.32
84310;BME280;74488;49.036;11.472;2024-01-30T03:37:44;98769.97;;;-2.56;91.24
84310;BME280;74488;49.036;11.472;2024-01-30T03:38:45;98773.53;;;-2.48;90.99
84310;BME280;74488;49.036;11.472;2024-01-30T03:39:47;98773.66;;;-2.39;91.03
84310;BME280;74488;49.036;11.472;2024-01-30T03:40:48;98771.03;;;-2.39;90.59
84310;BME280;74488;49.036;11.472;2024-01-30T03:41:50;98772.81;;;-2.38;90.48
84310;BME280;74488;49.036;11.472;2024-01-30T03:42:51;98762.28;;;-2.42;90.48
84310;BME280;74488;49.036;11.472;2024-01-30T03:43:53;98760.47;;;-2.48;89.91
84310;BME280;74488;49.036;11.472;2024-01-30T03:44:55;98765.66;;;-2.51;90.29
84310;BME280;74488;49.036;11.472;2024-01-30T03:45:56;98762.97;;;-2.57;89.65
84310;BME280;74488;49.036;11.472;2024-01-30T03:46:58;98764.66;;;-2.63;89.93
84310;BME280;74488;49.036;11.472;2024-01-30T03:48:00;98761.97;;;-2.68;89.95
84310;BME280;74488;49.036;11.472;2024-01-30T03:49:01;98773.22;;;-2.75;89.88
84310;BME280;74488;49.036;11.472;2024-01-30T03:50:03;98775.00;;;-2.74;89.75
84310;BME280;74488;49.036;11.472;2024-01-30T03:51:06;98774.03;;;-2.79;90.68
84310;BME280;74488;49.036;11.472;2024-01-30T03:52:07;98778.41;;;-2.78;90.63
84310;BME280;74488;49.036;11.472;2024-01-30T03:53:09;98771.47;;;-2.77;90.38
84310;BME280;74488;49.036;11.472;2024-01-30T03:54:10;98771.44;;;-2.79;90.30
84310;BME280;74488;49.036;11.472;2024-01-30T03:55:12;98758.25;;;-2.89;90.32
84310;BME280;74488;49.036;11.472;2024-01-30T03:56:13;98770.59;;;-2.78;90.73
84310;BME280;74488;49.036;11.472;2024-01-30T03:57:15;98763.53;;;-2.83;90.55
84310;BME280;74488;49.036;11.472;2024-01-30T03:58:16;98767.97;;;-2.78;90.93
84310;BME280;74488;49.036;11.472;2024-01-30T03:59:18;98764.63;;;-2.66;90.39
84310;BME280;74488;49.036;11.472;2024-01-30T04:00:25;98765.63;;;-2.55;90.19
84310;BME280;74488;49.036;11.472;2024-01-30T04:01:26;98765.66;;;-2.51;89.19
84310;BME280;74488;49.036;11.472;2024-01-30T04:02:28;98759.63;;;-2.47;89.25
84310;BME280;74488;49.036;11.472;2024-01-30T04:03:30;98762.28;;;-2.44;89.50
84310;BME280;74488;49.036;11.472;2024-01-30T04:04:31;98759.63;;;-2.47;89.68
84310;BME280;74488;49.036;11.472;2024-01-30T04:05:33;98759.56;;;-2.53;89.54
84310;BME280;74488;49.036;11.472;2024-01-30T04:06:35;98763.88;;;-2.58;89.74
84310;BME280;74488;49.036;11.472;2024-01-30T04:07:36;98762.94;;;-2.63;89.64
84310;BME280;74488;49.036;11.472;2024-01-30T04:08:38;98760.22;;;-2.72;89.84
84310;BME280;74488;49.036;11.472;2024-01-30T04:09:39;98769.78;;;-2.74;89.57
84310;BME280;74488;49.036;11.472;2024-01-30T04:10:41;98767.97;;;-2.78;89.96
84310;BME280;74488;49.036;11.472;2024-01-30T04:11:42;98770.56;;;-2.79;90.23
84310;BME280;74488;49.036;11.472;2024-01-30T04:12:44;98772.22;;;-2.84;89.93
84310;BME280;74488;49.036;11.472;2024-01-30T04:13:45;98763.50;;;-2.85;90.89
84310;BME280;74488;49.036;11.472;2024-01-30T04:14:49;98761.78;;;-2.84;90.91
84310;BME280;74488;49.036;11.472;2024-01-30T04:15:50;98728.47;;;-3.04;91.13
84310;BME280;74488;49.036;11.472;2024-01-30T04:16:52;98761.81;;;-2.83;91.67
84310;BME280;74488;49.036;11.472;2024-01-30T04:17:53;98765.28;;;-2.85;91.79
84310;BME280;74488;49.036;11.472;2024-01-30T04:18:55;98761.78;;;-2.84;91.33
84310;BME280;74488;49.036;11.472;2024-01-30T04:19:57;98764.38;;;-2.86;91.02
84310;BME280;74488;49.036;11.472;2024-01-30T04:20:59;98759.16;;;-2.86;90.81
84310;BME280;74488;49.036;11.472;2024-01-30T04:22:00;98763.56;;;-2.82;90.82
84310;BME280;74488;49.036;11.472;2024-01-30T04:23:02;98766.13;;;-2.85;90.20
84310;BME280;74488;49.036;11.472;2024-01-30T04:24:04;98755.63;;;-2.91;89.71
84310;BME280;74488;49.036;11.472;2024-01-30T04:25:06;98771.34;;;-2.88;90.08
84310;BME280;74488;49.036;11.472;2024-01-30T04:26:07;98771.28;;;-2.91;90.88
84310;BME280;74488;49.036;11.472;2024-01-30T04:27:09;98773.91;;;-2.91;90.38
84310;BME280;74488;49.036;11.472;2024-01-30T04:28:10;98721.28;;;-3.23;90.81
84310;BME280;74488;49.036;11.472;2024-01-30T04:29:13;98759.94;;;-2.95;91.48
84310;BME280;74488;49.036;11.472;2024-01-30T04:30:15;98743.19;;;-3.10;90.92
84310;BME280;74488;49.036;11.472;2024-01-30T04:31:16;98760.81;;;-2.94;91.82
84310;BME280;74488;49.036;11.472;2024-01-30T04:32:18;98763.41;;;-2.94;91.74
84310;BME280;74488;49.036;11.472;2024-01-30T04:33:19;98761.69;;;-2.92;92.59
84310;BME280;74488;49.036;11.472;2024-01-30T04:34:21;98761.63;;;-2.98;92.61
84310;BME280;74488;49.036;11.472;2024-01-30T04:35:22;98768.72;;;-2.88;91.71
84310;BME280;74488;49.036;11.472;2024-01-30T04:36:26;98766.03;;;-2.94;91.45
84310;BME280;74488;49.036;11.472;2024-01-30T04:37:27;98760.81;;;-2.93;91.41
84310;BME280;74488;49.036;11.472;2024-01-30T04:38:29;98764.31;;;-2.92;91.36
84310;BME280;74488;49.036;11.472;2024-01-30T04:39:32;98708.16;;;-3.27;91.61
84310;BME280;74488;49.036;11.472;2024-01-30T04:40:34;98767.69;;;-2.99;91.61
84310;BME280;74488;49.036;11.472;2024-01-30T04:41:35;98771.16;;;-3.00;91.32
84310;BME280;74488;49.036;11.472;2024-01-30T04:42:37;98770.28;;;-3.01;91.23
84310;BME280;74488;49.036;11.472;2024-01-30T04:43:38;98746.75;;;-3.05;91.46
84310;BME280;74488;49.036;11.472;2024-01-30T04:44:40;98766.00;;;-2.97;91.66
84310;BME280;74488;49.036;11.472;2024-01-30T04:45:41;98776.47;;;-2.94;91.35
84310;BME280;74488;49.036;11.472;2024-01-30T04:46:43;98773.81;;;-2.96;91.78
84310;BME280;74488;49.036;11.472;2024-01-30T04:47:44;98769.50;;;-2.95;91.76
84310;BME280;74488;49.036;11.472;2024-01-30T04:48:47;98753.75;;;-3.01;91.71
84310;BME280;74488;49.036;11.472;2024-01-30T04:49:51;98740.56;;;-3.10;91.51
84310;BME280;74488;49.036;11.472;2024-01-30T04:50:52;98766.00;;;-2.97;91.65
84310;BME280;74488;49.036;11.472;2024-01-30T04:51:54;98753.78;;;-3.00;91.42
84310;BME280;74488;49.036;11.472;2024-01-30T04:52:56;98752.06;;;-2.96;91.36
84310;BME280;74488;49.036;11.472;2024-01-30T04:53:57;98762.66;;;-2.84;90.88
84310;BME280;74488;49.036;11.472;2024-01-30T04:54:59;98760.97;;;-2.79;90.87
84310;BME280;74488;49.036;11.472;2024-01-30T04:56:00;98763.63;;;-2.77;90.40
84310;BME280;74488;49.036;11.472;2024-01-30T04:57:02;98767.88;;;-2.84;90.64
84310;BME280;74488;49.036;11.472;2024-01-30T04:58:04;98766.13;;;-2.85;90.32
84310;BME280;74488;49.036;11.472;2024-01-30T04:59:05;98753.06;;;-2.85;90.32
84310;BME280;74488;49.036;11.472;2024-01-30T05:00:07;98760.06;;;-2.84;90.21
84310;BME280;74488;49.036;11.472;2024-01-30T05:01:09;98759.16;;;-2.86;90.47
84310;BME280;74488;49.036;11.472;2024-01-30T05:02:11;98760.91;;;-2.85;90.57
84310;BME280;74488;49.036;11.472;2024-01-30T05:03:13;98766.13;;;-2.88;90.52
84310;BME280;74488;49.036;11.472;2024-01-30T05:04:14;98757.31;;;-2.93;90.26
84310;BME280;74488;49.036;11.472;2024-01-30T05:05:18;98770.41;;;-2.92;90.22
84310;BME280;74488;49.036;11.472;2024-01-30T05:06:25;98760.72;;;-3.00;89.75
84310;BME280;74488;49.036;11.472;2024-01-30T05:07:27;98755.44;;;-3.05;90.59
84310;BME280;74488;49.036;11.472;2024-01-30T05:08:28;98772.06;;;-3.00;90.71
84310;BME280;74488;49.036;11.472;2024-01-30T05:09:30;98766.78;;;-3.01;90.74
84310;BME280;74488;49.036;11.472;2024-01-30T05:10:31;98766.00;;;-2.97;91.14
84310;BME280;74488;49.036;11.472;2024-01-30T05:11:40;98714.25;;;-3.28;90.88
84310;BME280;74488;49.036;11.472;2024-01-30T05:12:41;98771.22;;;-2.97;90.72
84310;BME280;74488;49.036;11.472;2024-01-30T05:13:43;98772.00;;;-3.03;90.49
84310;BME280;74488;49.036;11.472;2024-01-30T05:14:44;98771.97;;;-3.06;90.47
84310;BME280;74488;49.036;11.472;2024-01-30T05:15:46;98774.56;;;-3.06;90.47
84310;BME280;74488;49.036;11.472;2024-01-30T05:16:47;98781.53;;;-3.06;90.09
84310;BME280;74488;49.036;11.472;2024-01-30T05:17:49;98776.31;;;-3.08;90.29
84310;BME280;74488;49.036;11.472;2024-01-30T05:18:50;98775.38;;;-3.10;90.44
84310;BME280;74488;49.036;11.472;2024-01-30T05:19:52;98777.09;;;-3.10;89.99
84310;BME280;74488;49.036;11.472;2024-01-30T05:20:53;98772.75;;;-3.11;90.11
84310;BME280;74488;49.036;11.472;2024-01-30T05:21:55;98777.97;;;-3.11;90.22
84310;BME280;74488;49.036;11.472;2024-01-30T05:22:57;98773.59;;;-3.12;90.94